sensor_id;sensor_type;location;lat;lon;timestamp;temperature;humidity
9949;DHT22;5013;51.840;8.276;2023-02-19T00:01:15;9.90;99.90
9949;DHT22;5013;51.840;8.276;2023-02-19T00:03:42;10.00;99.90
9949;DHT22;5013;51.840;8.276;2023-02-19T00:06:12;10.00;99.90
9949;DHT22;5013;51.840;8.276;2023-02-19T00:08:38;10.00;99.90
9949;DHT22;5013;51.840;8.276;2023-02-19T00:11:06;10.10;99.90
9949;DHT22;5013;51.840;8.276;2023-02-19T00:13:42;10.10;99.90
9949;DHT22;5013;51.840;8.276;2023-02-19T00:18:35;10.10;99.90
9949;DHT22;5013;51.840;8.276;2023-02-19T00:21:01;10.10;99.90
9949;DHT22;5013;51.840;8.276;2023-02-19T00:23:28;10.00;99.90
9949;DHT22;5013;51.840;8.276;2023-02-19T00:25:53;10.00;99.90
9949;DHT22;5013;51.840;8.276;2023-02-19T00:28:19;10.00;99.90
9949;DHT22;5013;51.840;8.276;2023-02-19T00:30:45;10.00;99.90
9949;DHT22;5013;51.840;8.276;2023-02-19T00:33:11;10.10;99.90
9949;DHT22;5013;51.840;8.276;2023-02-19T00:35:37;10.00;99.90
9949;DHT22;5013;51.840;8.276;2023-02-19T00:38:02;10.00;99.90
9949;DHT22;5013;51.840;8.276;2023-02-19T00:40:28;10.00;99.90
9949;DHT22;5013;51.840;8.276;2023-02-19T00:42:54;10.10;99.90
9949;DHT22;5013;51.840;8.276;2023-02-19T00:45:20;10.00;99.90
9949;DHT22;5013;51.840;8.276;2023-02-19T00:47:45;10.10;99.90
9949;DHT22;5013;51.840;8.276;2023-02-19T00:50:11;10.10;99.90
9949;DHT22;5013;51.840;8.276;2023-02-19T00:52:37;10.00;99.90
9949;DHT22;5013;51.840;8.276;2023-02-19T00:55:03;10.10;99.90
9949;DHT22;5013;51.840;8.276;2023-02-19T00:57:29;10.10;99.90
9949;DHT22;5013;51.840;8.276;2023-02-19T00:59:55;10.10;99.90
9949;DHT22;5013;51.840;8.276;2023-02-19T01:02:20;10.10;99.90
9949;DHT22;5013;51.840;8.276;2023-02-19T01:04:46;10.10;99.90
9949;DHT22;5013;51.840;8.276;2023-02-19T01:07:11;10.10;99.90
9949;DHT22;5013;51.840;8.276;2023-02-19T01:09:37;10.10;99.90
9949;DHT22;5013;51.840;8.276;2023-02-19T01:12:04;10.10;99.90
9949;DHT22;5013;51.840;8.276;2023-02-19T01:14:30;10.20;99.90
9949;DHT22;5013;51.840;8.276;2023-02-19T01:16:55;10.10;99.90
9949;DHT22;5013;51.840;8.276;2023-02-19T01:19:21;10.10;99.90
9949;DHT22;5013;51.840;8.276;2023-02-19T01:21:46;10.10;99.90
9949;DHT22;5013;51.840;8.276;2023-02-19T01:24:12;10.10;99.90
9949;DHT22;5013;51.840;8.276;2023-02-19T01:26:37;10.20;99.90
9949;DHT22;5013;51.840;8.276;2023-02-19T01:29:04;10.10;99.90
9949;DHT22;5013;51.840;8.276;2023-02-19T01:31:30;10.10;99.90
9949;DHT22;5013;51.840;8.276;2023-02-19T01:33:59;10.10;99.90
9949;DHT22;5013;51.840;8.276;2023-02-19T01:36:26;10.10;99.90
9949;DHT22;5013;51.840;8.276;2023-02-19T01:38:52;10.10;99.90
9949;DHT22;5013;51.840;8.276;2023-02-19T01:41:20;10.20;99.90
9949;DHT22;5013;51.840;8.276;2023-02-19T01:46:30;10.10;99.90
9949;DHT22;5013;51.840;8.276;2023-02-19T01:49:00;10.10;99.90
9949;DHT22;5013;51.840;8.276;2023-02-19T01:51:26;10.10;99.90
9949;DHT22;5013;51.840;8.276;2023-02-19T01:53:57;10.10;99.90
9949;DHT22;5013;51.840;8.276;2023-02-19T01:56:24;10.20;99.90
9949;DHT22;5013;51.840;8.276;2023-02-19T01:58:51;10.10;99.90
9949;DHT22;5013;51.840;8.276;2023-02-19T02:01:17;10.10;99.90
9949;DHT22;5013;51.840;8.276;2023-02-19T02:03:46;10.10;99.90
9949;DHT22;5013;51.840;8.276;2023-02-19T02:06:21;10.10;99.90
9949;DHT22;5013;51.840;8.276;2023-02-19T02:08:50;10.10;99.90
9949;DHT22;5013;51.840;8.276;2023-02-19T02:11:35;10.10;99.90
9949;DHT22;5013;51.840;8.276;2023-02-19T02:14:02;10.10;99.90
9949;DHT22;5013;51.840;8.276;2023-02-19T02:22:18;10.10;99.90
9949;DHT22;5013;51.840;8.276;2023-02-19T02:30:20;10.10;99.90
9949;DHT22;5013;51.840;8.276;2023-02-19T02:35:57;10.10;99.90
9949;DHT22;5013;51.840;8.276;2023-02-19T02:38:27;10.10;99.90
9949;DHT22;5013;51.840;8.276;2023-02-19T02:40:54;10.10;99.90
9949;DHT22;5013;51.840;8.276;2023-02-19T02:43:20;10.00;99.90
9949;DHT22;5013;51.840;8.276;2023-02-19T02:45:46;10.10;99.90
9949;DHT22;5013;51.840;8.276;2023-02-19T02:48:40;10.00;99.90
9949;DHT22;5013;51.840;8.276;2023-02-19T02:51:19;10.00;99.90
9949;DHT22;5013;51.840;8.276;2023-02-19T02:56:54;9.90;99.90
9949;DHT22;5013;51.840;8.276;2023-02-19T02:59:25;9.90;99.90
9949;DHT22;5013;51.840;8.276;2023-02-19T03:02:12;9.90;99.90
9949;DHT22;5013;51.840;8.276;2023-02-19T03:10:11;9.90;99.90
9949;DHT22;5013;51.840;8.276;2023-02-19T03:12:39;9.90;99.90
9949;DHT22;5013;51.840;8.276;2023-02-19T03:15:27;10.00;99.90
9949;DHT22;5013;51.840;8.276;2023-02-19T03:18:14;9.90;99.90
9949;DHT22;5013;51.840;8.276;2023-02-19T03:21:00;9.90;99.90
9949;DHT22;5013;51.840;8.276;2023-02-19T03:23:29;9.80;99.90
9949;DHT22;5013;51.840;8.276;2023-02-19T03:26:16;9.80;99.90
9949;DHT22;5013;51.840;8.276;2023-02-19T03:28:47;9.80;99.90
9949;DHT22;5013;51.840;8.276;2023-02-19T03:31:33;9.90;99.90
9949;DHT22;5013;51.840;8.276;2023-02-19T03:34:02;9.80;99.90
9949;DHT22;5013;51.840;8.276;2023-02-19T03:36:41;9.80;99.90
9949;DHT22;5013;51.840;8.276;2023-02-19T03:39:10;9.80;99.90
9949;DHT22;5013;51.840;8.276;2023-02-19T03:42:02;9.80;99.90
9949;DHT22;5013;51.840;8.276;2023-02-19T03:44:51;9.70;99.90
9949;DHT22;5013;51.840;8.276;2023-02-19T03:47:26;9.70;99.90
9949;DHT22;5013;51.840;8.276;2023-02-19T03:50:08;9.60;99.90
9949;DHT22;5013;51.840;8.276;2023-02-19T03:52:52;9.70;99.90
9949;DHT22;5013;51.840;8.276;2023-02-19T03:57:55;9.60;99.90
9949;DHT22;5013;51.840;8.276;2023-02-19T04:00:29;9.60;99.90
9949;DHT22;5013;51.840;8.276;2023-02-19T04:05:45;9.60;99.90
9949;DHT22;5013;51.840;8.276;2023-02-19T04:08:18;9.60;99.90
9949;DHT22;5013;51.840;8.276;2023-02-19T04:10:46;9.60;99.90
9949;DHT22;5013;51.840;8.276;2023-02-19T04:13:17;9.60;99.90
9949;DHT22;5013;51.840;8.276;2023-02-19T04:15:46;9.60;99.90
9949;DHT22;5013;51.840;8.276;2023-02-19T04:18:17;9.60;99.90
9949;DHT22;5013;51.840;8.276;2023-02-19T04:20:45;9.60;99.90
9949;DHT22;5013;51.840;8.276;2023-02-19T04:23:12;9.60;99.90
9949;DHT22;5013;51.840;8.276;2023-02-19T04:25:40;9.60;99.90
9949;DHT22;5013;51.840;8.276;2023-02-19T04:28:08;9.60;99.90
9949;DHT22;5013;51.840;8.276;2023-02-19T04:30:33;9.60;99.90
9949;DHT22;5013;51.840;8.276;2023-02-19T04:32:59;9.60;99.90
9949;DHT22;5013;51.840;8.276;2023-02-19T04:35:25;9.60;99.90
9949;DHT22;5013;51.840;8.276;2023-02-19T04:37:50;9.60;99.90
9949;DHT22;5013;51.840;8.276;2023-02-19T04:40:16;9.50;99.90
9949;DHT22;5013;51.840;8.276;2023-02-19T04:42:41;9.60;99.90
9949;DHT22;5013;51.840;8.276;2023-02-19T04:45:07;9.50;99.90
9949;DHT22;5013;51.840;8.276;2023-02-19T04:47:33;9.50;99.90
9949;DHT22;5013;51.840;8.276;2023-02-19T04:49:58;9.50;99.90
9949;DHT22;5013;51.840;8.276;2023-02-19T04:52:24;9.50;99.90
9949;DHT22;5013;51.840;8.276;2023-02-19T04:54:50;9.50;99.90
9949;DHT22;5013;51.840;8.276;2023-02-19T04:57:15;9.50;99.90
9949;DHT22;5013;51.840;8.276;2023-02-19T04:59:41;9.40;99.90
9949;DHT22;5013;51.840;8.276;2023-02-19T05:02:06;9.40;99.90
9949;DHT22;5013;51.840;8.276;2023-02-19T05:04:32;9.40;99.90
9949;DHT22;5013;51.840;8.276;2023-02-19T05:06:58;9.40;99.90
9949;DHT22;5013;51.840;8.276;2023-02-19T05:09:23;9.40;99.90
9949;DHT22;5013;51.840;8.276;2023-02-19T05:11:49;9.50;99.90
9949;DHT22;5013;51.840;8.276;2023-02-19T05:14:14;9.50;99.90
9949;DHT22;5013;51.840;8.276;2023-02-19T05:16:41;9.40;99.90
9949;DHT22;5013;51.840;8.276;2023-02-19T05:19:10;9.40;99.90
9949;DHT22;5013;51.840;8.276;2023-02-19T05:21:35;9.50;99.90
9949;DHT22;5013;51.840;8.276;2023-02-19T05:24:01;9.50;99.90
9949;DHT22;5013;51.840;8.276;2023-02-19T05:26:27;9.40;99.90
9949;DHT22;5013;51.840;8.276;2023-02-19T05:28:53;9.40;99.90
9949;DHT22;5013;51.840;8.276;2023-02-19T05:31:20;9.40;99.90
9949;DHT22;5013;51.840;8.276;2023-02-19T05:33:45;9.40;99.90
9949;DHT22;5013;51.840;8.276;2023-02-19T05:36:16;9.40;99.90
9949;DHT22;5013;51.840;8.276;2023-02-19T05:38:41;9.40;99.90
9949;DHT22;5013;51.840;8.276;2023-02-19T05:41:12;9.40;99.90
9949;DHT22;5013;51.840;8.276;2023-02-19T05:43:39;9.40;99.90
9949;DHT22;5013;51.840;8.276;2023-02-19T05:46:05;9.40;99.90
9949;DHT22;5013;51.840;8.276;2023-02-19T05:48:31;9.30;99.90
9949;DHT22;5013;51.840;8.276;2023-02-19T05:51:01;9.30;99.90
9949;DHT22;5013;51.840;8.276;2023-02-19T05:53:27;9.30;99.90
9949;DHT22;5013;51.840;8.276;2023-02-19T05:55:53;9.40;99.90
9949;DHT22;5013;51.840;8.276;2023-02-19T05:58:18;9.30;99.90
9949;DHT22;5013;51.840;8.276;2023-02-19T06:00:44;9.30;99.90
9949;DHT22;5013;51.840;8.276;2023-02-19T06:03:09;9.30;99.90
9949;DHT22;5013;51.840;8.276;2023-02-19T06:05:36;9.30;99.90
9949;DHT22;5013;51.840;8.276;2023-02-19T06:08:02;9.30;99.90
9949;DHT22;5013;51.840;8.276;2023-02-19T06:10:27;9.30;99.90
9949;DHT22;5013;51.840;8.276;2023-02-19T06:12:53;9.20;99.90
9949;DHT22;5013;51.840;8.276;2023-02-19T06:15:19;9.30;99.90
9949;DHT22;5013;51.840;8.276;2023-02-19T06:17:46;9.30;99.90
9949;DHT22;5013;51.840;8.276;2023-02-19T06:20:12;9.30;99.90
9949;DHT22;5013;51.840;8.276;2023-02-19T06:22:37;9.30;99.90
9949;DHT22;5013;51.840;8.276;2023-02-19T06:25:03;9.30;99.90
9949;DHT22;5013;51.840;8.276;2023-02-19T06:27:30;9.30;99.90
9949;DHT22;5013;51.840;8.276;2023-02-19T06:29:55;9.30;99.90
9949;DHT22;5013;51.840;8.276;2023-02-19T06:32:21;9.20;99.90
9949;DHT22;5013;51.840;8.276;2023-02-19T06:34:47;9.20;99.90
9949;DHT22;5013;51.840;8.276;2023-02-19T06:37:13;9.30;99.90
9949;DHT22;5013;51.840;8.276;2023-02-19T06:39:38;9.20;99.90
9949;DHT22;5013;51.840;8.276;2023-02-19T06:42:04;9.20;99.90
9949;DHT22;5013;51.840;8.276;2023-02-19T06:44:29;9.20;99.90
9949;DHT22;5013;51.840;8.276;2023-02-19T06:46:55;9.20;99.90
9949;DHT22;5013;51.840;8.276;2023-02-19T06:49:21;9.20;99.90
9949;DHT22;5013;51.840;8.276;2023-02-19T06:51:46;9.20;99.90
9949;DHT22;5013;51.840;8.276;2023-02-19T06:54:12;9.20;99.90
9949;DHT22;5013;51.840;8.276;2023-02-19T06:56:39;9.20;99.90
9949;DHT22;5013;51.840;8.276;2023-02-19T06:59:08;9.20;99.90
9949;DHT22;5013;51.840;8.276;2023-02-19T07:01:35;9.20;99.90
9949;DHT22;5013;51.840;8.276;2023-02-19T07:04:01;9.20;99.90
9949;DHT22;5013;51.840;8.276;2023-02-19T07:06:28;9.20;99.90
9949;DHT22;5013;51.840;8.276;2023-02-19T07:08:56;9.20;99.90
9949;DHT22;5013;51.840;8.276;2023-02-19T07:11:22;9.20;99.90
9949;DHT22;5013;51.840;8.276;2023-02-19T07:13:53;9.30;99.90
9949;DHT22;5013;51.840;8.276;2023-02-19T07:16:19;9.30;99.90
9949;DHT22;5013;51.840;8.276;2023-02-19T07:18:45;9.20;99.90
9949;DHT22;5013;51.840;8.276;2023-02-19T07:21:12;9.30;99.90
9949;DHT22;5013;51.840;8.276;2023-02-19T07:23:39;9.30;99.90
9949;DHT22;5013;51.840;8.276;2023-02-19T07:26:11;9.30;99.90
9949;DHT22;5013;51.840;8.276;2023-02-19T07:28:39;9.30;99.90
9949;DHT22;5013;51.840;8.276;2023-02-19T07:31:05;9.30;99.90
9949;DHT22;5013;51.840;8.276;2023-02-19T07:33:30;9.30;99.90
9949;DHT22;5013;51.840;8.276;2023-02-19T07:35:56;9.30;99.90
9949;DHT22;5013;51.840;8.276;2023-02-19T07:38:23;9.30;99.90
9949;DHT22;5013;51.840;8.276;2023-02-19T07:40:54;9.30;99.90
9949;DHT22;5013;51.840;8.276;2023-02-19T07:43:20;9.40;99.90
9949;DHT22;5013;51.840;8.276;2023-02-19T07:45:46;9.30;99.90
9949;DHT22;5013;51.840;8.276;2023-02-19T07:48:12;9.30;99.90
9949;DHT22;5013;51.840;8.276;2023-02-19T07:50:37;9.30;99.90
9949;DHT22;5013;51.840;8.276;2023-02-19T07:53:03;9.30;99.90
9949;DHT22;5013;51.840;8.276;2023-02-19T07:55:30;9.20;97.80
9949;DHT22;5013;51.840;8.276;2023-02-19T07:57:57;8.90;1.00
9949;DHT22;5013;51.840;8.276;2023-02-19T08:00:22;8.70;1.00
9949;DHT22;5013;51.840;8.276;2023-02-19T08:02:48;8.50;1.00
9949;DHT22;5013;51.840;8.276;2023-02-19T08:05:33;8.40;1.00
9949;DHT22;5013;51.840;8.276;2023-02-19T08:07:59;8.30;1.00
9949;DHT22;5013;51.840;8.276;2023-02-19T08:10:26;8.20;1.00
9949;DHT22;5013;51.840;8.276;2023-02-19T08:13:12;8.10;1.00
9949;DHT22;5013;51.840;8.276;2023-02-19T08:15:48;8.00;4.60
9949;DHT22;5013;51.840;8.276;2023-02-19T08:18:15;7.90;1.00
9949;DHT22;5013;51.840;8.276;2023-02-19T08:20:42;7.80;1.00
9949;DHT22;5013;51.840;8.276;2023-02-19T08:23:09;7.80;1.00
9949;DHT22;5013;51.840;8.276;2023-02-19T08:25:34;7.80;1.00
9949;DHT22;5013;51.840;8.276;2023-02-19T08:28:00;7.80;1.50
9949;DHT22;5013;51.840;8.276;2023-02-19T08:30:27;7.80;1.00
9949;DHT22;5013;51.840;8.276;2023-02-19T08:32:53;7.70;1.00
9949;DHT22;5013;51.840;8.276;2023-02-19T08:35:18;7.70;1.00
9949;DHT22;5013;51.840;8.276;2023-02-19T08:37:44;7.80;1.00
9949;DHT22;5013;51.840;8.276;2023-02-19T08:40:10;7.80;1.00
9949;DHT22;5013;51.840;8.276;2023-02-19T08:42:36;7.80;1.00
9949;DHT22;5013;51.840;8.276;2023-02-19T08:45:03;7.80;1.00
9949;DHT22;5013;51.840;8.276;2023-02-19T08:47:28;7.90;1.00
9949;DHT22;5013;51.840;8.276;2023-02-19T08:49:54;7.90;1.00
9949;DHT22;5013;51.840;8.276;2023-02-19T08:52:20;7.90;1.00
9949;DHT22;5013;51.840;8.276;2023-02-19T08:54:45;7.90;1.00
9949;DHT22;5013;51.840;8.276;2023-02-19T08:57:11;7.90;1.00
9949;DHT22;5013;51.840;8.276;2023-02-19T08:59:36;7.80;1.00
9949;DHT22;5013;51.840;8.276;2023-02-19T09:02:02;7.70;1.00
9949;DHT22;5013;51.840;8.276;2023-02-19T09:04:27;7.70;1.00
9949;DHT22;5013;51.840;8.276;2023-02-19T09:06:53;7.60;1.00
9949;DHT22;5013;51.840;8.276;2023-02-19T09:09:19;7.60;1.00
9949;DHT22;5013;51.840;8.276;2023-02-19T09:11:45;7.50;1.00
9949;DHT22;5013;51.840;8.276;2023-02-19T09:14:11;7.40;1.00
9949;DHT22;5013;51.840;8.276;2023-02-19T09:16:36;7.40;1.00
9949;DHT22;5013;51.840;8.276;2023-02-19T09:19:05;7.40;1.00
9949;DHT22;5013;51.840;8.276;2023-02-19T09:21:30;7.50;1.00
9949;DHT22;5013;51.840;8.276;2023-02-19T09:23:56;7.50;1.00
9949;DHT22;5013;51.840;8.276;2023-02-19T09:26:21;7.50;1.00
9949;DHT22;5013;51.840;8.276;2023-02-19T09:28:47;7.60;1.00
9949;DHT22;5013;51.840;8.276;2023-02-19T09:31:14;7.60;1.00
9949;DHT22;5013;51.840;8.276;2023-02-19T09:33:47;7.70;1.00
9949;DHT22;5013;51.840;8.276;2023-02-19T09:36:14;7.70;1.00
9949;DHT22;5013;51.840;8.276;2023-02-19T09:38:40;7.80;1.00
9949;DHT22;5013;51.840;8.276;2023-02-19T09:41:16;7.90;1.00
9949;DHT22;5013;51.840;8.276;2023-02-19T09:43:43;8.00;1.00
9949;DHT22;5013;51.840;8.276;2023-02-19T09:47:02;8.10;1.00
9949;DHT22;5013;51.840;8.276;2023-02-19T09:49:10;8.00;1.00
9949;DHT22;5013;51.840;8.276;2023-02-19T09:51:38;8.00;1.00
9949;DHT22;5013;51.840;8.276;2023-02-19T09:54:08;8.10;1.00
9949;DHT22;5013;51.840;8.276;2023-02-19T09:56:37;8.20;1.00
9949;DHT22;5013;51.840;8.276;2023-02-19T09:59:03;8.30;1.00
9949;DHT22;5013;51.840;8.276;2023-02-19T10:01:33;8.50;1.00
9949;DHT22;5013;51.840;8.276;2023-02-19T10:04:02;8.60;99.90
9949;DHT22;5013;51.840;8.276;2023-02-19T10:06:28;8.40;99.90
9949;DHT22;5013;51.840;8.276;2023-02-19T10:11:43;8.20;1.00
9949;DHT22;5013;51.840;8.276;2023-02-19T10:14:38;8.10;99.90
9949;DHT22;5013;51.840;8.276;2023-02-19T10:17:05;8.00;99.90
9949;DHT22;5013;51.840;8.276;2023-02-19T10:19:32;8.00;1.00
9949;DHT22;5013;51.840;8.276;2023-02-19T10:21:59;8.10;1.00
9949;DHT22;5013;51.840;8.276;2023-02-19T10:24:29;8.00;1.00
9949;DHT22;5013;51.840;8.276;2023-02-19T10:26:55;8.10;1.00
9949;DHT22;5013;51.840;8.276;2023-02-19T10:29:21;8.10;99.90
9949;DHT22;5013;51.840;8.276;2023-02-19T10:31:49;8.10;1.00
9949;DHT22;5013;51.840;8.276;2023-02-19T10:34:34;8.10;1.00
9949;DHT22;5013;51.840;8.276;2023-02-19T10:37:00;8.30;1.00
9949;DHT22;5013;51.840;8.276;2023-02-19T10:39:38;8.40;99.90
9949;DHT22;5013;51.840;8.276;2023-02-19T10:42:17;8.40;99.90
9949;DHT22;5013;51.840;8.276;2023-02-19T10:44:45;8.40;99.90
9949;DHT22;5013;51.840;8.276;2023-02-19T10:47:21;8.50;1.00
9949;DHT22;5013;51.840;8.276;2023-02-19T10:49:48;8.70;99.90
9949;DHT22;5013;51.840;8.276;2023-02-19T10:52:22;8.80;99.90
9949;DHT22;5013;51.840;8.276;2023-02-19T10:54:56;8.80;84.20
9949;DHT22;5013;51.840;8.276;2023-02-19T10:57:37;8.80;1.00
9949;DHT22;5013;51.840;8.276;2023-02-19T11:00:20;8.60;1.00
9949;DHT22;5013;51.840;8.276;2023-02-19T11:02:47;8.70;99.90
9949;DHT22;5013;51.840;8.276;2023-02-19T11:05:17;8.80;76.30
9949;DHT22;5013;51.840;8.276;2023-02-19T11:07:56;8.80;1.00
9949;DHT22;5013;51.840;8.276;2023-02-19T11:10:31;8.90;1.00
9949;DHT22;5013;51.840;8.276;2023-02-19T11:13:00;9.10;1.00
9949;DHT22;5013;51.840;8.276;2023-02-19T11:15:30;9.20;99.90
9949;DHT22;5013;51.840;8.276;2023-02-19T11:18:40;9.10;1.00
9949;DHT22;5013;51.840;8.276;2023-02-19T11:21:25;9.10;1.00
9949;DHT22;5013;51.840;8.276;2023-02-19T11:23:54;9.20;1.00
9949;DHT22;5013;51.840;8.276;2023-02-19T11:26:23;9.20;1.00
9949;DHT22;5013;51.840;8.276;2023-02-19T11:29:00;9.20;3.50
9949;DHT22;5013;51.840;8.276;2023-02-19T11:31:31;9.30;1.00
9949;DHT22;5013;51.840;8.276;2023-02-19T11:33:59;9.40;99.90
9949;DHT22;5013;51.840;8.276;2023-02-19T11:38:53;9.20;96.60
9949;DHT22;5013;51.840;8.276;2023-02-19T11:41:35;9.20;8.60
9949;DHT22;5013;51.840;8.276;2023-02-19T11:44:50;9.20;1.00
9949;DHT22;5013;51.840;8.276;2023-02-19T11:53:33;9.10;99.90
9949;DHT22;5013;51.840;8.276;2023-02-19T11:56:14;9.00;99.90
9949;DHT22;5013;51.840;8.276;2023-02-19T12:01:52;8.80;99.90
9949;DHT22;5013;51.840;8.276;2023-02-19T12:26:31;9.30;1.00
9949;DHT22;5013;51.840;8.276;2023-02-19T12:29:11;9.20;1.00
9949;DHT22;5013;51.840;8.276;2023-02-19T12:37:58;9.50;99.90
9949;DHT22;5013;51.840;8.276;2023-02-19T12:43:28;9.50;58.50
9949;DHT22;5013;51.840;8.276;2023-02-19T12:46:02;9.50;1.00
9949;DHT22;5013;51.840;8.276;2023-02-19T12:51:09;9.60;1.00
9949;DHT22;5013;51.840;8.276;2023-02-19T12:53:44;9.80;1.00
9949;DHT22;5013;51.840;8.276;2023-02-19T12:56:35;10.00;99.90
9949;DHT22;5013;51.840;8.276;2023-02-19T12:59:10;10.00;99.90
9949;DHT22;5013;51.840;8.276;2023-02-19T13:01:56;10.10;1.00
9949;DHT22;5013;51.840;8.276;2023-02-19T13:04:43;10.10;1.00
9949;DHT22;5013;51.840;8.276;2023-02-19T13:09:51;10.30;1.00
9949;DHT22;5013;51.840;8.276;2023-02-19T13:12:28;10.30;99.90
9949;DHT22;5013;51.840;8.276;2023-02-19T13:14:59;10.10;57.70
9949;DHT22;5013;51.840;8.276;2023-02-19T13:20:29;9.80;1.00
9949;DHT22;5013;51.840;8.276;2023-02-19T13:33:41;10.00;1.00
9949;DHT22;5013;51.840;8.276;2023-02-19T13:36:11;10.00;99.90
9949;DHT22;5013;51.840;8.276;2023-02-19T13:38:42;10.00;99.90
9949;DHT22;5013;51.840;8.276;2023-02-19T13:41:24;10.20;99.90
9949;DHT22;5013;51.840;8.276;2023-02-19T13:44:02;10.10;99.90
9949;DHT22;5013;51.840;8.276;2023-02-19T13:46:37;9.90;99.90
9949;DHT22;5013;51.840;8.276;2023-02-19T13:51:52;10.00;99.90
9949;DHT22;5013;51.840;8.276;2023-02-19T13:54:27;10.10;28.50
9949;DHT22;5013;51.840;8.276;2023-02-19T13:59:44;10.00;99.90
9949;DHT22;5013;51.840;8.276;2023-02-19T14:02:26;10.10;1.00
9949;DHT22;5013;51.840;8.276;2023-02-19T14:05:07;10.10;99.90
9949;DHT22;5013;51.840;8.276;2023-02-19T14:07:38;9.90;99.90
9949;DHT22;5013;51.840;8.276;2023-02-19T14:12:58;9.70;1.00
9949;DHT22;5013;51.840;8.276;2023-02-19T14:15:38;9.70;99.90
9949;DHT22;5013;51.840;8.276;2023-02-19T14:21:13;9.70;1.00
9949;DHT22;5013;51.840;8.276;2023-02-19T14:23:40;9.50;1.00
9949;DHT22;5013;51.840;8.276;2023-02-19T14:26:06;9.50;1.00
9949;DHT22;5013;51.840;8.276;2023-02-19T14:28:50;9.50;1.00
9949;DHT22;5013;51.840;8.276;2023-02-19T14:31:28;9.50;99.90
9949;DHT22;5013;51.840;8.276;2023-02-19T14:34:00;9.40;99.90
9949;DHT22;5013;51.840;8.276;2023-02-19T14:36:49;9.30;99.90
9949;DHT22;5013;51.840;8.276;2023-02-19T14:39:22;9.30;99.90
9949;DHT22;5013;51.840;8.276;2023-02-19T14:41:56;9.30;1.00
9949;DHT22;5013;51.840;8.276;2023-02-19T14:44:26;9.20;1.00
9949;DHT22;5013;51.840;8.276;2023-02-19T14:49:35;9.40;1.00
9949;DHT22;5013;51.840;8.276;2023-02-19T14:52:06;9.30;99.90
9949;DHT22;5013;51.840;8.276;2023-02-19T14:57:09;9.10;99.90
9949;DHT22;5013;51.840;8.276;2023-02-19T14:59:36;9.10;1.00
9949;DHT22;5013;51.840;8.276;2023-02-19T15:02:12;9.10;99.90
9949;DHT22;5013;51.840;8.276;2023-02-19T15:04:38;9.10;1.00
9949;DHT22;5013;51.840;8.276;2023-02-19T15:07:10;9.00;99.90
9949;DHT22;5013;51.840;8.276;2023-02-19T15:09:44;8.90;1.00
9949;DHT22;5013;51.840;8.276;2023-02-19T15:15:45;8.70;1.00
9949;DHT22;5013;51.840;8.276;2023-02-19T15:18:19;8.60;99.90
9949;DHT22;5013;51.840;8.276;2023-02-19T15:20:46;8.60;1.00
9949;DHT22;5013;51.840;8.276;2023-02-19T15:23:20;8.60;1.00
9949;DHT22;5013;51.840;8.276;2023-02-19T15:25:47;8.70;1.00
9949;DHT22;5013;51.840;8.276;2023-02-19T15:31:04;8.70;1.00
9949;DHT22;5013;51.840;8.276;2023-02-19T15:33:32;8.80;99.90
9949;DHT22;5013;51.840;8.276;2023-02-19T15:36:00;8.70;99.90
9949;DHT22;5013;51.840;8.276;2023-02-19T15:38:27;8.70;99.90
9949;DHT22;5013;51.840;8.276;2023-02-19T15:40:53;8.60;1.00
9949;DHT22;5013;51.840;8.276;2023-02-19T15:43:40;8.60;1.00
9949;DHT22;5013;51.840;8.276;2023-02-19T15:46:16;8.70;1.00
9949;DHT22;5013;51.840;8.276;2023-02-19T15:51:38;8.60;1.00
9949;DHT22;5013;51.840;8.276;2023-02-19T15:54:29;8.60;1.00
9949;DHT22;5013;51.840;8.276;2023-02-19T15:57:02;8.60;1.00
9949;DHT22;5013;51.840;8.276;2023-02-19T15:59:38;8.50;1.00
9949;DHT22;5013;51.840;8.276;2023-02-19T16:02:10;8.50;1.00
9949;DHT22;5013;51.840;8.276;2023-02-19T16:04:36;8.50;1.00
9949;DHT22;5013;51.840;8.276;2023-02-19T16:07:02;8.50;1.00
9949;DHT22;5013;51.840;8.276;2023-02-19T16:09:32;8.60;1.00
9949;DHT22;5013;51.840;8.276;2023-02-19T16:12:00;8.60;1.00
9949;DHT22;5013;51.840;8.276;2023-02-19T16:14:36;8.60;1.00
9949;DHT22;5013;51.840;8.276;2023-02-19T16:17:15;8.60;1.00
9949;DHT22;5013;51.840;8.276;2023-02-19T16:19:50;8.40;99.90
9949;DHT22;5013;51.840;8.276;2023-02-19T16:22:19;8.40;99.90
9949;DHT22;5013;51.840;8.276;2023-02-19T16:24:48;8.30;1.00
9949;DHT22;5013;51.840;8.276;2023-02-19T16:29:56;8.30;1.00
9949;DHT22;5013;51.840;8.276;2023-02-19T16:32:22;8.20;99.90
9949;DHT22;5013;51.840;8.276;2023-02-19T16:34:49;8.20;99.90
9949;DHT22;5013;51.840;8.276;2023-02-19T16:37:38;8.20;99.90
9949;DHT22;5013;51.840;8.276;2023-02-19T16:42:34;8.00;1.00
9949;DHT22;5013;51.840;8.276;2023-02-19T16:45:00;7.90;99.90
9949;DHT22;5013;51.840;8.276;2023-02-19T16:47:31;7.90;99.90
9949;DHT22;5013;51.840;8.276;2023-02-19T16:49:59;7.80;99.90
9949;DHT22;5013;51.840;8.276;2023-02-19T16:52:26;7.80;99.90
9949;DHT22;5013;51.840;8.276;2023-02-19T16:54:51;7.90;1.00
9949;DHT22;5013;51.840;8.276;2023-02-19T16:57:17;7.90;1.00
9949;DHT22;5013;51.840;8.276;2023-02-19T16:59:42;7.90;1.00
9949;DHT22;5013;51.840;8.276;2023-02-19T17:02:13;8.00;1.00
9949;DHT22;5013;51.840;8.276;2023-02-19T17:04:39;7.90;1.00
9949;DHT22;5013;51.840;8.276;2023-02-19T17:07:05;7.90;1.00
9949;DHT22;5013;51.840;8.276;2023-02-19T17:09:30;7.90;1.00
9949;DHT22;5013;51.840;8.276;2023-02-19T17:11:56;7.90;1.00
9949;DHT22;5013;51.840;8.276;2023-02-19T17:14:21;7.90;1.00
9949;DHT22;5013;51.840;8.276;2023-02-19T17:16:47;7.90;1.00
9949;DHT22;5013;51.840;8.276;2023-02-19T17:19:15;7.80;1.00
9949;DHT22;5013;51.840;8.276;2023-02-19T17:21:42;7.80;1.00
9949;DHT22;5013;51.840;8.276;2023-02-19T17:24:09;7.90;1.00
9949;DHT22;5013;51.840;8.276;2023-02-19T17:26:35;7.80;1.00
9949;DHT22;5013;51.840;8.276;2023-02-19T17:29:04;7.80;20.60
9949;DHT22;5013;51.840;8.276;2023-02-19T17:31:30;7.80;71.70
9949;DHT22;5013;51.840;8.276;2023-02-19T17:33:56;7.80;96.50
9949;DHT22;5013;51.840;8.276;2023-02-19T17:36:28;7.90;99.90
9949;DHT22;5013;51.840;8.276;2023-02-19T17:39:01;7.80;99.90
9949;DHT22;5013;51.840;8.276;2023-02-19T17:41:28;7.90;99.90
9949;DHT22;5013;51.840;8.276;2023-02-19T17:43:54;7.80;99.90
9949;DHT22;5013;51.840;8.276;2023-02-19T17:46:21;7.80;99.90
9949;DHT22;5013;51.840;8.276;2023-02-19T17:48:47;7.80;99.90
9949;DHT22;5013;51.840;8.276;2023-02-19T17:51:13;7.80;99.90
9949;DHT22;5013;51.840;8.276;2023-02-19T17:53:39;7.70;99.90
9949;DHT22;5013;51.840;8.276;2023-02-19T17:56:05;7.70;99.90
9949;DHT22;5013;51.840;8.276;2023-02-19T17:58:30;7.70;99.90
9949;DHT22;5013;51.840;8.276;2023-02-19T18:00:56;7.60;99.90
9949;DHT22;5013;51.840;8.276;2023-02-19T18:03:21;7.60;99.90
9949;DHT22;5013;51.840;8.276;2023-02-19T18:05:47;7.60;99.90
9949;DHT22;5013;51.840;8.276;2023-02-19T18:08:13;7.60;99.90
9949;DHT22;5013;51.840;8.276;2023-02-19T18:10:38;7.60;99.90
9949;DHT22;5013;51.840;8.276;2023-02-19T18:13:04;7.50;99.90
9949;DHT22;5013;51.840;8.276;2023-02-19T18:15:29;7.50;99.90
9949;DHT22;5013;51.840;8.276;2023-02-19T18:17:56;7.50;99.90
9949;DHT22;5013;51.840;8.276;2023-02-19T18:20:27;7.50;99.90
9949;DHT22;5013;51.840;8.276;2023-02-19T18:22:54;7.40;99.90
9949;DHT22;5013;51.840;8.276;2023-02-19T18:25:20;7.40;99.90
9949;DHT22;5013;51.840;8.276;2023-02-19T18:27:46;7.40;99.90
9949;DHT22;5013;51.840;8.276;2023-02-19T18:30:15;7.30;99.90
9949;DHT22;5013;51.840;8.276;2023-02-19T18:32:43;7.40;99.90
9949;DHT22;5013;51.840;8.276;2023-02-19T18:35:09;7.30;99.90
9949;DHT22;5013;51.840;8.276;2023-02-19T18:37:34;7.30;99.90
9949;DHT22;5013;51.840;8.276;2023-02-19T18:40:02;7.30;99.90
9949;DHT22;5013;51.840;8.276;2023-02-19T18:42:27;7.30;99.90
9949;DHT22;5013;51.840;8.276;2023-02-19T18:44:53;7.30;99.90